sensor_id;sensor_type;location;lat;lon;timestamp;temperature;humidity
9668;DHT22;4872;48.316;10.650;2024-01-30T05:07:12;-0.10;96.20
9668;DHT22;4872;48.316;10.650;2024-01-30T05:09:39;-0.20;96.40
9668;DHT22;4872;48.316;10.650;2024-01-30T05:12:07;-0.10;96.70
9668;DHT22;4872;48.316;10.650;2024-01-30T05:14:33;-0.10;96.90
9668;DHT22;4872;48.316;10.650;2024-01-30T05:17:00;-0.10;96.90
9668;DHT22;4872;48.316;10.650;2024-01-30T05:19:28;-0.20;96.90
9668;DHT22;4872;48.316;10.650;2024-01-30T05:21:55;-0.30;96.60
9668;DHT22;4872;48.316;10.650;2024-01-30T05:24:23;-0.40;96.70
9668;DHT22;4872;48.316;10.650;2024-01-30T05:26:50;-0.40;96.90
9668;DHT22;4872;48.316;10.650;2024-01-30T05:29:17;-0.50;97.20
9668;DHT22;4872;48.316;10.650;2024-01-30T05:31:43;-0.40;97.30
9668;DHT22;4872;48.316;10.650;2024-01-30T05:34:10;-0.40;97.00
9668;DHT22;4872;48.316;10.650;2024-01-30T05:36:37;-0.40;96.90
9668;DHT22;4872;48.316;10.650;2024-01-30T05:39:04;-0.40;97.00
9668;DHT22;4872;48.316;10.650;2024-01-30T05:41:32;-0.40;96.90
9668;DHT22;4872;48.316;10.650;2024-01-30T05:43:58;-0.30;96.70
9668;DHT22;4872;48.316;10.650;2024-01-30T05:46:25;-0.30;96.60
9668;DHT22;4872;48.316;10.650;2024-01-30T05:48:52;-0.30;96.50
9668;DHT22;4872;48.316;10.650;2024-01-30T05:51:19;-0.20;96.40
9668;DHT22;4872;48.316;10.650;2024-01-30T05:53:45;-0.20;96.20
9668;DHT22;4872;48.316;10.650;2024-01-30T05:56:12;-0.20;96.10
9668;DHT22;4872;48.316;10.650;2024-01-30T05:58:40;-0.30;96.00
9668;DHT22;4872;48.316;10.650;2024-01-30T06:01:08;-0.30;96.00
9668;DHT22;4872;48.316;10.650;2024-01-30T06:03:35;-0.30;95.80
9668;DHT22;4872;48.316;10.650;2024-01-30T06:06:02;-0.30;95.50
9668;DHT22;4872;48.316;10.650;2024-01-30T06:08:29;-0.20;95.70
9668;DHT22;4872;48.316;10.650;2024-01-30T06:10:56;-0.20;95.40
9668;DHT22;4872;48.316;10.650;2024-01-30T06:13:22;-0.20;95.30
9668;DHT22;4872;48.316;10.650;2024-01-30T06:15:51;-0.20;95.50
9668;DHT22;4872;48.316;10.650;2024-01-30T06:18:17;-0.20;95.10
9668;DHT22;4872;48.316;10.650;2024-01-30T06:20:44;-0.20;95.10
9668;DHT22;4872;48.316;10.650;2024-01-30T06:23:11;-0.30;95.20
9668;DHT22;4872;48.316;10.650;2024-01-30T06:25:38;-0.30;95.40
9668;DHT22;4872;48.316;10.650;2024-01-30T06:28:05;-0.40;95.40
9668;DHT22;4872;48.316;10.650;2024-01-30T06:30:32;-0.30;95.40
9668;DHT22;4872;48.316;10.650;2024-01-30T06:33:00;-0.30;95.20
9668;DHT22;4872;48.316;10.650;2024-01-30T06:35:27;-0.30;95.00
9668;DHT22;4872;48.316;10.650;2024-01-30T06:37:54;-0.30;95.10
9668;DHT22;4872;48.316;10.650;2024-01-30T06:40:21;-0.30;95.00
9668;DHT22;4872;48.316;10.650;2024-01-30T06:42:48;-0.30;94.70
9668;DHT22;4872;48.316;10.650;2024-01-30T06:45:15;-0.30;94.80
9668;DHT22;4872;48.316;10.650;2024-01-30T06:47:42;-0.30;94.60
9668;DHT22;4872;48.316;10.650;2024-01-30T06:50:10;-0.30;94.60
9668;DHT22;4872;48.316;10.650;2024-01-30T06:52:36;-0.40;94.80
9668;DHT22;4872;48.316;10.650;2024-01-30T06:55:04;-0.20;95.00
9668;DHT22;4872;48.316;10.650;2024-01-30T06:57:30;-0.40;94.80
9668;DHT22;4872;48.316;10.650;2024-01-30T06:59:57;-0.40;94.80
9668;DHT22;4872;48.316;10.650;2024-01-30T07:02:24;-0.30;94.70
9668;DHT22;4872;48.316;10.650;2024-01-30T07:04:51;-0.30;94.50
9668;DHT22;4872;48.316;10.650;2024-01-30T07:07:19;-0.30;94.70
9668;DHT22;4872;48.316;10.650;2024-01-30T07:09:45;-0.30;94.70
9668;DHT22;4872;48.316;10.650;2024-01-30T07:12:15;-0.20;94.60
9668;DHT22;4872;48.316;10.650;2024-01-30T07:14:42;-0.10;94.50
9668;DHT22;4872;48.316;10.650;2024-01-30T07:17:08;-0.10;94.20
9668;DHT22;4872;48.316;10.650;2024-01-30T07:19:35;0.00;94.50
9668;DHT22;4872;48.316;10.650;2024-01-30T07:22:02;0.00;94.30
9668;DHT22;4872;48.316;10.650;2024-01-30T07:24:30;0.10;94.30
9668;DHT22;4872;48.316;10.650;2024-01-30T07:26:57;0.10;94.00
9668;DHT22;4872;48.316;10.650;2024-01-30T07:29:23;0.20;94.20
9668;DHT22;4872;48.316;10.650;2024-01-30T07:31:50;0.30;94.20
9668;DHT22;4872;48.316;10.650;2024-01-30T07:34:17;0.40;94.10
9668;DHT22;4872;48.316;10.650;2024-01-30T07:36:44;0.60;94.30
9668;DHT22;4872;48.316;10.650;2024-01-30T07:39:12;0.90;94.20
9668;DHT22;4872;48.316;10.650;2024-01-30T07:41:40;1.20;94.00
9668;DHT22;4872;48.316;10.650;2024-01-30T07:44:07;1.30;93.70
9668;DHT22;4872;48.316;10.650;2024-01-30T07:46:34;1.60;93.60
9668;DHT22;4872;48.316;10.650;2024-01-30T07:49:01;1.70;93.20
9668;DHT22;4872;48.316;10.650;2024-01-30T07:51:28;2.00;93.00
9668;DHT22;4872;48.316;10.650;2024-01-30T07:53:57;2.10;92.70
9668;DHT22;4872;48.316;10.650;2024-01-30T07:56:24;2.40;92.70
9668;DHT22;4872;48.316;10.650;2024-01-30T07:58:52;2.80;92.60
9668;DHT22;4872;48.316;10.650;2024-01-30T08:01:19;3.10;91.90
9668;DHT22;4872;48.316;10.650;2024-01-30T08:03:45;3.70;91.70
9668;DHT22;4872;48.316;10.650;2024-01-30T08:06:12;4.00;91.00
9668;DHT22;4872;48.316;10.650;2024-01-30T08:08:39;4.20;90.50
9668;DHT22;4872;48.316;10.650;2024-01-30T08:11:06;4.00;90.60
9668;DHT22;4872;48.316;10.650;2024-01-30T08:13:33;4.20;90.00
9668;DHT22;4872;48.316;10.650;2024-01-30T08:16:01;4.50;90.10
9668;DHT22;4872;48.316;10.650;2024-01-30T08:18:28;4.80;89.40
9668;DHT22;4872;48.316;10.650;2024-01-30T08:20:54;4.80;89.10
9668;DHT22;4872;48.316;10.650;2024-01-30T08:23:21;5.00;88.90
9668;DHT22;4872;48.316;10.650;2024-01-30T08:25:48;5.20;89.10
9668;DHT22;4872;48.316;10.650;2024-01-30T08:28:15;5.50;88.70
9668;DHT22;4872;48.316;10.650;2024-01-30T08:30:42;5.80;87.10
9668;DHT22;4872;48.316;10.650;2024-01-30T08:33:10;5.90;86.30
9668;DHT22;4872;48.316;10.650;2024-01-30T08:35:36;6.00;86.00
9668;DHT22;4872;48.316;10.650;2024-01-30T08:38:03;6.10;86.20
9668;DHT22;4872;48.316;10.650;2024-01-30T08:40:30;6.20;86.30
9668;DHT22;4872;48.316;10.650;2024-01-30T08:42:57;6.30;85.70
9668;DHT22;4872;48.316;10.650;2024-01-30T08:45:24;6.50;85.70
9668;DHT22;4872;48.316;10.650;2024-01-30T08:47:50;6.80;85.70
9668;DHT22;4872;48.316;10.650;2024-01-30T08:50:18;6.80;84.70
9668;DHT22;4872;48.316;10.650;2024-01-30T08:52:45;7.00;84.10
9668;DHT22;4872;48.316;10.650;2024-01-30T08:55:12;6.80;83.00
9668;DHT22;4872;48.316;10.650;2024-01-30T08:57:39;6.90;84.30
9668;DHT22;4872;48.316;10.650;2024-01-30T09:00:07;6.90;84.40
9668;DHT22;4872;48.316;10.650;2024-01-30T09:02:34;7.10;83.60
9668;DHT22;4872;48.316;10.650;2024-01-30T09:05:01;7.40;84.20
9668;DHT22;4872;48.316;10.650;2024-01-30T09:07:29;7.70;82.80
9668;DHT22;4872;48.316;10.650;2024-01-30T09:09:56;8.00;81.80
9668;DHT22;4872;48.316;10.650;2024-01-30T09:12:23;8.10;81.10
9668;DHT22;4872;48.316;10.650;2024-01-30T09:14:50;8.00;80.40
9668;DHT22;4872;48.316;10.650;2024-01-30T09:17:17;8.10;80.70
9668;DHT22;4872;48.316;10.650;2024-01-30T09:19:43;8.40;79.50
9668;DHT22;4872;48.316;10.650;2024-01-30T09:22:10;8.70;80.40
9668;DHT22;4872;48.316;10.650;2024-01-30T09:24:39;9.00;79.00
9668;DHT22;4872;48.316;10.650;2024-01-30T09:27:07;9.20;79.00
9668;DHT22;4872;48.316;10.650;2024-01-30T09:29:34;9.20;77.70
9668;DHT22;4872;48.316;10.650;2024-01-30T09:32:01;9.20;77.70
9668;DHT22;4872;48.316;10.650;2024-01-30T09:34:28;9.30;78.40
9668;DHT22;4872;48.316;10.650;2024-01-30T09:36:55;9.60;77.80
9668;DHT22;4872;48.316;10.650;2024-01-30T09:39:22;10.10;76.00
9668;DHT22;4872;48.316;10.650;2024-01-30T09:41:55;10.80;75.00
9668;DHT22;4872;48.316;10.650;2024-01-30T09:44:28;11.20;74.90
9668;DHT22;4872;48.316;10.650;2024-01-30T09:46:55;11.80;73.10
9668;DHT22;4872;48.316;10.650;2024-01-30T09:49:25;12.20;71.70
9668;DHT22;4872;48.316;10.650;2024-01-30T09:51:53;12.60;70.20
9668;DHT22;4872;48.316;10.650;2024-01-30T09:54:21;13.00;69.60
9668;DHT22;4872;48.316;10.650;2024-01-30T09:56:49;13.10;68.90
9668;DHT22;4872;48.316;10.650;2024-01-30T09:59:16;13.20;67.70
9668;DHT22;4872;48.316;10.650;2024-01-30T10:01:43;13.30;67.00
9668;DHT22;4872;48.316;10.650;2024-01-30T10:04:10;13.50;67.40
9668;DHT22;4872;48.316;10.650;2024-01-30T10:06:37;13.50;66.60
9668;DHT22;4872;48.316;10.650;2024-01-30T10:09:04;13.60;68.00
9668;DHT22;4872;48.316;10.650;2024-01-30T10:11:31;13.60;66.30
9668;DHT22;4872;48.316;10.650;2024-01-30T10:14:00;13.40;65.50
9668;DHT22;4872;48.316;10.650;2024-01-30T10:16:26;13.10;65.40
9668;DHT22;4872;48.316;10.650;2024-01-30T10:18:53;12.90;68.30
9668;DHT22;4872;48.316;10.650;2024-01-30T10:21:21;13.00;68.40
9668;DHT22;4872;48.316;10.650;2024-01-30T10:23:48;13.30;67.50
9668;DHT22;4872;48.316;10.650;2024-01-30T10:26:16;13.50;68.40
9668;DHT22;4872;48.316;10.650;2024-01-30T10:28:43;13.40;68.80
9668;DHT22;4872;48.316;10.650;2024-01-30T10:31:10;13.20;68.90
9668;DHT22;4872;48.316;10.650;2024-01-30T10:33:37;13.30;69.20
9668;DHT22;4872;48.316;10.650;2024-01-30T10:36:05;13.30;70.20
9668;DHT22;4872;48.316;10.650;2024-01-30T10:38:32;13.60;70.50
9668;DHT22;4872;48.316;10.650;2024-01-30T10:41:00;13.90;70.00
9668;DHT22;4872;48.316;10.650;2024-01-30T10:43:31;14.40;69.40
9668;DHT22;4872;48.316;10.650;2024-01-30T10:46:07;14.80;68.60
9668;DHT22;4872;48.316;10.650;2024-01-30T10:48:41;15.10;68.60
9668;DHT22;4872;48.316;10.650;2024-01-30T10:51:11;15.40;67.60
9668;DHT22;4872;48.316;10.650;2024-01-30T10:53:39;15.50;66.70
9668;DHT22;4872;48.316;10.650;2024-01-30T10:56:06;15.60;66.60
9668;DHT22;4872;48.316;10.650;2024-01-30T10:58:34;15.50;64.50
9668;DHT22;4872;48.316;10.650;2024-01-30T11:01:01;15.00;64.30
9668;DHT22;4872;48.316;10.650;2024-01-30T11:03:30;14.80;65.00
9668;DHT22;4872;48.316;10.650;2024-01-30T11:06:00;14.30;65.10
9668;DHT22;4872;48.316;10.650;2024-01-30T11:08:27;13.80;65.80
9668;DHT22;4872;48.316;10.650;2024-01-30T11:10:55;13.50;66.30
9668;DHT22;4872;48.316;10.650;2024-01-30T11:13:22;13.20;66.20
9668;DHT22;4872;48.316;10.650;2024-01-30T11:15:52;12.80;66.70
9668;DHT22;4872;48.316;10.650;2024-01-30T11:18:23;12.80;67.40
9668;DHT22;4872;48.316;10.650;2024-01-30T11:20:50;12.70;67.60
9668;DHT22;4872;48.316;10.650;2024-01-30T11:23:21;12.70;68.50
9668;DHT22;4872;48.316;10.650;2024-01-30T11:25:48;12.60;68.20
9668;DHT22;4872;48.316;10.650;2024-01-30T11:28:15;12.80;68.60
9668;DHT22;4872;48.316;10.650;2024-01-30T11:30:42;12.80;69.00
9668;DHT22;4872;48.316;10.650;2024-01-30T11:33:11;12.80;70.00
9668;DHT22;4872;48.316;10.650;2024-01-30T11:35:39;12.90;70.20
9668;DHT22;4872;48.316;10.650;2024-01-30T11:38:07;12.80;70.90
9668;DHT22;4872;48.316;10.650;2024-01-30T11:40:36;12.90;70.50
9668;DHT22;4872;48.316;10.650;2024-01-30T11:43:05;13.20;71.40
9668;DHT22;4872;48.316;10.650;2024-01-30T11:45:33;13.60;69.70
9668;DHT22;4872;48.316;10.650;2024-01-30T11:48:01;13.90;69.20
9668;DHT22;4872;48.316;10.650;2024-01-30T11:50:29;14.10;68.60
9668;DHT22;4872;48.316;10.650;2024-01-30T11:52:56;14.20;69.10
9668;DHT22;4872;48.316;10.650;2024-01-30T11:55:23;14.00;67.60
9668;DHT22;4872;48.316;10.650;2024-01-30T11:57:55;14.30;68.20
9668;DHT22;4872;48.316;10.650;2024-01-30T12:00:21;14.70;68.00
9668;DHT22;4872;48.316;10.650;2024-01-30T12:02:49;14.90;67.20
9668;DHT22;4872;48.316;10.650;2024-01-30T12:05:18;15.00;66.30
9668;DHT22;4872;48.316;10.650;2024-01-30T12:07:45;15.10;66.70
9668;DHT22;4872;48.316;10.650;2024-01-30T12:10:12;15.40;67.20
9668;DHT22;4872;48.316;10.650;2024-01-30T12:12:42;15.60;67.70
9668;DHT22;4872;48.316;10.650;2024-01-30T12:15:11;15.50;67.40
9668;DHT22;4872;48.316;10.650;2024-01-30T12:17:37;15.80;66.80
9668;DHT22;4872;48.316;10.650;2024-01-30T12:20:05;16.00;64.20
9668;DHT22;4872;48.316;10.650;2024-01-30T12:22:33;16.50;63.50
9668;DHT22;4872;48.316;10.650;2024-01-30T12:25:00;17.20;63.00
9668;DHT22;4872;48.316;10.650;2024-01-30T12:27:27;17.80;61.70
9668;DHT22;4872;48.316;10.650;2024-01-30T12:29:57;19.00;61.80
9668;DHT22;4872;48.316;10.650;2024-01-30T12:32:25;20.40;59.70
9668;DHT22;4872;48.316;10.650;2024-01-30T12:34:55;21.60;58.00
9668;DHT22;4872;48.316;10.650;2024-01-30T12:37:22;22.30;56.10
9668;DHT22;4872;48.316;10.650;2024-01-30T12:39:51;22.10;54.40
9668;DHT22;4872;48.316;10.650;2024-01-30T12:42:18;21.30;53.80
9668;DHT22;4872;48.316;10.650;2024-01-30T12:44:45;21.10;54.50
9668;DHT22;4872;48.316;10.650;2024-01-30T12:47:12;20.70;54.90
9668;DHT22;4872;48.316;10.650;2024-01-30T12:49:43;20.50;53.90
9668;DHT22;4872;48.316;10.650;2024-01-30T12:52:10;20.40;53.70
9668;DHT22;4872;48.316;10.650;2024-01-30T12:54:37;20.50;53.90
9668;DHT22;4872;48.316;10.650;2024-01-30T12:57:04;20.50;54.40
9668;DHT22;4872;48.316;10.650;2024-01-30T12:59:31;19.80;53.60
9668;DHT22;4872;48.316;10.650;2024-01-30T13:01:59;19.50;54.50
9668;DHT22;4872;48.316;10.650;2024-01-30T13:04:27;19.00;54.80
9668;DHT22;4872;48.316;10.650;2024-01-30T13:06:55;18.70;54.90
9668;DHT22;4872;48.316;10.650;2024-01-30T13:09:23;18.30;55.00
9668;DHT22;4872;48.316;10.650;2024-01-30T13:11:50;17.90;55.40
9668;DHT22;4872;48.316;10.650;2024-01-30T13:14:17;17.90;56.30
9668;DHT22;4872;48.316;10.650;2024-01-30T13:16:44;17.80;56.20
9668;DHT22;4872;48.316;10.650;2024-01-30T13:19:11;17.10;55.80
9668;DHT22;4872;48.316;10.650;2024-01-30T13:21:37;16.70;56.20
9668;DHT22;4872;48.316;10.650;2024-01-30T13:24:06;16.70;56.70
9668;DHT22;4872;48.316;10.650;2024-01-30T13:26:33;16.50;55.60
9668;DHT22;4872;48.316;10.650;2024-01-30T13:29:00;16.10;56.00
9668;DHT22;4872;48.316;10.650;2024-01-30T13:31:26;15.90;56.40
9668;DHT22;4872;48.316;10.650;2024-01-30T13:33:53;15.70;56.40
9668;DHT22;4872;48.316;10.650;2024-01-30T13:36:21;15.60;57.00
9668;DHT22;4872;48.316;10.650;2024-01-30T13:38:48;15.70;56.60
9668;DHT22;4872;48.316;10.650;2024-01-30T13:41:16;15.70;55.40
9668;DHT22;4872;48.316;10.650;2024-01-30T13:43:43;15.60;55.20
9668;DHT22;4872;48.316;10.650;2024-01-30T13:46:10;15.70;54.40
9668;DHT22;4872;48.316;10.650;2024-01-30T13:48:37;15.00;53.80
9668;DHT22;4872;48.316;10.650;2024-01-30T13:51:04;14.70;52.70
9668;DHT22;4872;48.316;10.650;2024-01-30T13:53:31;14.70;54.30
9668;DHT22;4872;48.316;10.650;2024-01-30T13:55:58;14.80;54.40
9668;DHT22;4872;48.316;10.650;2024-01-30T13:58:26;15.00;54.20
9668;DHT22;4872;48.316;10.650;2024-01-30T14:00:53;15.10;54.00
9668;DHT22;4872;48.316;10.650;2024-01-30T14:03:20;15.10;54.50
9668;DHT22;4872;48.316;10.650;2024-01-30T14:05:47;14.80;54.10
9668;DHT22;4872;48.316;10.650;2024-01-30T14:08:14;14.90;54.70
9668;DHT22;4872;48.316;10.650;2024-01-30T14:10:41;14.80;54.40
9668;DHT22;4872;48.316;10.650;2024-01-30T14:13:08;14.80;54.60
9668;DHT22;4872;48.316;10.650;2024-01-30T14:15:36;14.90;54.80
9668;DHT22;4872;48.316;10.650;2024-01-30T14:18:03;14.80;54.20
9668;DHT22;4872;48.316;10.650;2024-01-30T14:20:29;14.30;52.40
9668;DHT22;4872;48.316;10.650;2024-01-30T14:22:56;13.80;53.20
9668;DHT22;4872;48.316;10.650;2024-01-30T14:25:24;13.80;53.70
9668;DHT22;4872;48.316;10.650;2024-01-30T14:27:51;13.50;53.70
9668;DHT22;4872;48.316;10.650;2024-01-30T14:30:18;13.40;53.80
9668;DHT22;4872;48.316;10.650;2024-01-30T14:32:46;13.30;54.30
9668;DHT22;4872;48.316;10.650;2024-01-30T14:35:14;13.30;54.30
9668;DHT22;4872;48.316;10.650;2024-01-30T14:37:41;13.20;54.70
9668;DHT22;4872;48.316;10.650;2024-01-30T14:40:08;13.40;55.20
9668;DHT22;4872;48.316;10.650;2024-01-30T14:42:35;13.30;55.10
9668;DHT22;4872;48.316;10.650;2024-01-30T14:45:03;13.00;55.30
9668;DHT22;4872;48.316;10.650;2024-01-30T14:47:30;13.00;55.60
9668;DHT22;4872;48.316;10.650;2024-01-30T14:49:58;13.10;56.00
9668;DHT22;4872;48.316;10.650;2024-01-30T14:52:25;13.30;56.10
9668;DHT22;4872;48.316;10.650;2024-01-30T14:54:52;13.30;56.50
9668;DHT22;4872;48.316;10.650;2024-01-30T14:57:19;13.50;56.60
9668;DHT22;4872;48.316;10.650;2024-01-30T14:59:45;13.40;56.50
9668;DHT22;4872;48.316;10.650;2024-01-30T15:02:13;13.40;56.60
9668;DHT22;4872;48.316;10.650;2024-01-30T15:04:41;13.40;56.80
9668;DHT22;4872;48.316;10.650;2024-01-30T15:07:09;13.40;57.10
9668;DHT22;4872;48.316;10.650;2024-01-30T15:09:36;13.40;57.20
9668;DHT22;4872;48.316;10.650;2024-01-30T15:12:03;13.20;57.50
9668;DHT22;4872;48.316;10.650;2024-01-30T15:14:30;13.00;58.10
9668;DHT22;4872;48.316;10.650;2024-01-30T15:16:57;12.80;58.60
9668;DHT22;4872;48.316;10.650;2024-01-30T15:19:24;12.70;59.20
9668;DHT22;4872;48.316;10.650;2024-01-30T15:21:50;12.50;59.50
9668;DHT22;4872;48.316;10.650;2024-01-30T15:24:19;12.50;60.10
9668;DHT22;4872;48.316;10.650;2024-01-30T15:26:49;12.30;60.30
9668;DHT22;4872;48.316;10.650;2024-01-30T15:29:16;12.20;61.00
9668;DHT22;4872;48.316;10.650;2024-01-30T15:31:43;12.10;61.10
9668;DHT22;4872;48.316;10.650;2024-01-30T15:34:10;11.90;61.00
9668;DHT22;4872;48.316;10.650;2024-01-30T15:36:37;11.60;61.40
9668;DHT22;4872;48.316;10.650;2024-01-30T15:39:03;11.50;61.80
9668;DHT22;4872;48.316;10.650;2024-01-30T15:41:32;11.30;62.00
9668;DHT22;4872;48.316;10.650;2024-01-30T15:43:58;11.10;62.60
9668;DHT22;4872;48.316;10.650;2024-01-30T15:46:27;10.80;62.80
9668;DHT22;4872;48.316;10.650;2024-01-30T15:48:54;10.80;63.30
9668;DHT22;4872;48.316;10.650;2024-01-30T15:51:21;10.80;63.50
9668;DHT22;4872;48.316;10.650;2024-01-30T15:53:48;10.70;63.70
9668;DHT22;4872;48.316;10.650;2024-01-30T15:56:15;10.60;64.00
9668;DHT22;4872;48.316;10.650;2024-01-30T15:58:43;10.40;63.90
9668;DHT22;4872;48.316;10.650;2024-01-30T16:01:14;10.30;64.30
9668;DHT22;4872;48.316;10.650;2024-01-30T16:03:41;10.30;64.60
9668;DHT22;4872;48.316;10.650;2024-01-30T16:06:10;10.10;64.70
9668;DHT22;4872;48.316;10.650;2024-01-30T16:08:37;10.00;65.00
9668;DHT22;4872;48.316;10.650;2024-01-30T16:11:03;9.90;66.20
9668;DHT22;4872;48.316;10.650;2024-01-30T16:13:30;9.80;66.50
9668;DHT22;4872;48.316;10.650;2024-01-30T16:15:58;9.80;66.70
9668;DHT22;4872;48.316;10.650;2024-01-30T16:18:25;9.70;66.90
9668;DHT22;4872;48.316;10.650;2024-01-30T16:20:56;9.60;66.90
9668;DHT22;4872;48.316;10.650;2024-01-30T16:23:23;9.70;67.40
9668;DHT22;4872;48.316;10.650;2024-01-30T16:25:50;9.50;67.40
9668;DHT22;4872;48.316;10.650;2024-01-30T16:28:17;9.30;67.70
9668;DHT22;4872;48.316;10.650;2024-01-30T16:30:44;9.20;67.90
9668;DHT22;4872;48.316;10.650;2024-01-30T16:33:12;9.00;68.10
9668;DHT22;4872;48.316;10.650;2024-01-30T16:35:39;8.90;68.40
9668;DHT22;4872;48.316;10.650;2024-01-30T16:38:07;8.80;68.60
9668;DHT22;4872;48.316;10.650;2024-01-30T16:40:33;8.70;69.00
9668;DHT22;4872;48.316;10.650;2024-01-30T16:43:00;8.60;69.20
9668;DHT22;4872;48.316;10.650;2024-01-30T16:45:27;8.50;69.40
9668;DHT22;4872;48.316;10.650;2024-01-30T16:47:54;8.50;69.60
9668;DHT22;4872;48.316;10.650;2024-01-30T16:50:22;8.40;69.80
9668;DHT22;4872;48.316;10.650;2024-01-30T16:52:49;8.40;70.40
9668;DHT22;4872;48.316;10.650;2024-01-30T16:55:16;8.20;70.50
9668;DHT22;4872;48.316;10.650;2024-01-30T16:57:44;8.10;71.30
9668;DHT22;4872;48.316;10.650;2024-01-30T17:00:11;8.00;71.60
9668;DHT22;4872;48.316;10.650;2024-01-30T17:02:40;7.90;72.30
9668;DHT22;4872;48.316;10.650;2024-01-30T17:05:07;7.80;72.30
9668;DHT22;4872;48.316;10.650;2024-01-30T17:07:35;7.80;72.60
9668;DHT22;4872;48.316;10.650;2024-01-30T17:10:03;7.70;72.60
9668;DHT22;4872;48.316;10.650;2024-01-30T17:12:35;7.70;72.90
9668;DHT22;4872;48.316;10.650;2024-01-30T17:15:08;7.60;73.40
9668;DHT22;4872;48.316;10.650;2024-01-30T17:17:35;7.60;73.70
9668;DHT22;4872;48.316;10.650;2024-01-30T17:20:02;7.60;73.80
9668;DHT22;4872;48.316;10.650;2024-01-30T17:22:29;7.50;73.60
9668;DHT22;4872;48.316;10.650;2024-01-30T17:24:57;7.40;74.30
9668;DHT22;4872;48.316;10.650;2024-01-30T17:27:24;7.30;74.10
9668;DHT22;4872;48.316;10.650;2024-01-30T17:29:51;7.10;74.40
9668;DHT22;4872;48.316;10.650;2024-01-30T17:32:17;7.20;74.70
9668;DHT22;4872;48.316;10.650;2024-01-30T17:34:45;7.30;74.70
9668;DHT22;4872;48.316;10.650;2024-01-30T17:37:12;7.30;74.70
9668;DHT22;4872;48.316;10.650;2024-01-30T17:39:39;7.30;74.80
9668;DHT22;4872;48.316;10.650;2024-01-30T17:42:07;7.40;74.60
9668;DHT22;4872;48.316;10.650;2024-01-30T17:44:34;7.40;74.60
9668;DHT22;4872;48.316;10.650;2024-01-30T17:47:05;7.40;74.30
9668;DHT22;4872;48.316;10.650;2024-01-30T17:49:33;7.40;74.60
9668;DHT22;4872;48.316;10.650;2024-01-30T17:52:02;7.30;74.70
9668;DHT22;4872;48.316;10.650;2024-01-30T17:54:28;7.30;74.80
9668;DHT22;4872;48.316;10.650;2024-01-30T17:56:55;7.20;75.00
9668;DHT22;4872;48.316;10.650;2024-01-30T17:59:23;7.10;75.50
9668;DHT22;4872;48.316;10.650;2024-01-30T18:01:50;7.10;75.40
9668;DHT22;4872;48.316;10.650;2024-01-30T18:04:17;7.00;75.50
9668;DHT22;4872;48.316;10.650;2024-01-30T18:06:49;6.90;75.60
9668;DHT22;4872;48.316;10.650;2024-01-30T18:09:15;6.90;75.80
9668;DHT22;4872;48.316;10.650;2024-01-30T18:11:42;6.90;76.00
9668;DHT22;4872;48.316;10.650;2024-01-30T18:14:09;6.90;76.30
9668;DHT22;4872;48.316;10.650;2024-01-30T18:16:37;6.80;76.30
9668;DHT22;4872;48.316;10.650;2024-01-30T18:19:04;6.70;76.70
9668;DHT22;4872;48.316;10.650;2024-01-30T18:21:30;6.70;77.10
9668;DHT22;4872;48.316;10.650;2024-01-30T18:23:57;6.60;77.50
9668;DHT22;4872;48.316;10.650;2024-01-30T18:26:24;6.50;77.90
9668;DHT22;4872;48.316;10.650;2024-01-30T18:28:51;6.60;78.40
9668;DHT22;4872;48.316;10.650;2024-01-30T18:31:21;6.60;78.70
9668;DHT22;4872;48.316;10.650;2024-01-30T18:33:49;6.60;78.80
9668;DHT22;4872;48.316;10.650;2024-01-30T18:36:17;6.60;79.00
9668;DHT22;4872;48.316;10.650;2024-01-30T18:38:44;6.60;79.00
9668;DHT22;4872;48.316;10.650;2024-01-30T18:41:11;6.50;78.90
9668;DHT22;4872;48.316;10.650;2024-01-30T18:43:37;6.50;79.10
9668;DHT22;4872;48.316;10.650;2024-01-30T18:46:04;6.40;79.10
9668;DHT22;4872;48.316;10.650;2024-01-30T18:48:31;6.50;79.50
9668;DHT22;4872;48.316;10.650;2024-01-30T18:50:59;6.40;79.20
9668;DHT22;4872;48.316;10.650;2024-01-30T18:53:26;6.60;79.50
9668;DHT22;4872;48.316;10.650;2024-01-30T18:55:53;6.60;79.10
9668;DHT22;4872;48.316;10.650;2024-01-30T18:58:20;6.60;78.90
9668;DHT22;4872;48.316;10.650;2024-01-30T19:00:47;6.60;79.50
9668;DHT22;4872;48.316;10.650;2024-01-30T19:03:14;6.60;79.20
9668;DHT22;4872;48.316;10.650;2024-01-30T19:05:41;6.50;79.20
9668;DHT22;4872;48.316;10.650;2024-01-30T19:08:10;6.50;79.20
9668;DHT22;4872;48.316;10.650;2024-01-30T19:10:37;6.40;79.40
9668;DHT22;4872;48.316;10.650;2024-01-30T19:13:04;6.30;79.80
9668;DHT22;4872;48.316;10.650;2024-01-30T19:15:31;6.30;79.70
9668;DHT22;4872;48.316;10.650;2024-01-30T19:17:58;6.30;79.90
9668;DHT22;4872;48.316;10.650;2024-01-30T19:20:25;6.20;80.10
9668;DHT22;4872;48.316;10.650;2024-01-30T19:22:52;6.30;80.40
9668;DHT22;4872;48.316;10.650;2024-01-30T19:25:20;6.30;80.60
9668;DHT22;4872;48.316;10.650;2024-01-30T19:27:47;6.10;81.00
9668;DHT22;4872;48.316;10.650;2024-01-30T19:30:14;6.00;81.30
9668;DHT22;4872;48.316;10.650;2024-01-30T19:32:41;5.90;81.60
9668;DHT22;4872;48.316;10.650;2024-01-30T19:35:08;5.90;81.70
9668;DHT22;4872;48.316;10.650;2024-01-30T19:37:35;5.90;81.70
9668;DHT22;4872;48.316;10.650;2024-01-30T19:40:03;5.90;81.70
9668;DHT22;4872;48.316;10.650;2024-01-30T19:42:32;5.90;82.00
9668;DHT22;4872;48.316;10.650;2024-01-30T19:44:59;5.90;82.30
9668;DHT22;4872;48.316;10.650;2024-01-30T19:47:26;5.90;82.50
9668;DHT22;4872;48.316;10.650;2024-01-30T19:49:53;5.80;82.90
9668;DHT22;4872;48.316;10.650;2024-01-30T19:52:20;5.80;83.40
9668;DHT22;4872;48.316;10.650;2024-01-30T19:54:46;5.80;83.60
9668;DHT22;4872;48.316;10.650;2024-01-30T19:57:13;5.70;83.90
9668;DHT22;4872;48.316;10.650;2024-01-30T19:59:41;5.70;84.00
9668;DHT22;4872;48.316;10.650;2024-01-30T20:02:08;5.70;84.30
9668;DHT22;4872;48.316;10.650;2024-01-30T20:04:35;5.60;84.50
9668;DHT22;4872;48.316;10.650;2024-01-30T20:07:02;5.60;84.20
9668;DHT22;4872;48.316;10.650;2024-01-30T20:09:28;5.50;84.80
9668;DHT22;4872;48.316;10.650;2024-01-30T20:11:55;5.40;84.60
9668;DHT22;4872;48.316;10.650;2024-01-30T20:14:22;5.30;85.40
9668;DHT22;4872;48.316;10.650;2024-01-30T20:16:50;5.30;85.40
9668;DHT22;4872;48.316;10.650;2024-01-30T20:19:17;5.30;85.60
9668;DHT22;4872;48.316;10.650;2024-01-30T20:21:43;5.30;86.20
9668;DHT22;4872;48.316;10.650;2024-01-30T20:24:12;5.30;86.40
9668;DHT22;4872;48.316;10.650;2024-01-30T20:26:39;5.40;86.70
9668;DHT22;4872;48.316;10.650;2024-01-30T20:29:06;5.40;86.90
9668;DHT22;4872;48.316;10.650;2024-01-30T20:31:33;5.50;87.10
9668;DHT22;4872;48.316;10.650;2024-01-30T20:34:02;5.40;87.10
9668;DHT22;4872;48.316;10.650;2024-01-30T20:36:29;5.40;87.00
9668;DHT22;4872;48.316;10.650;2024-01-30T20:38:55;5.40;86.90
9668;DHT22;4872;48.316;10.650;2024-01-30T20:41:22;5.40;87.30
9668;DHT22;4872;48.316;10.650;2024-01-30T20:43:49;5.30;87.00
9668;DHT22;4872;48.316;10.650;2024-01-30T20:46:15;5.30;86.70
9668;DHT22;4872;48.316;10.650;2024-01-30T20:48:43;5.30;87.10
9668;DHT22;4872;48.316;10.650;2024-01-30T20:51:11;5.30;87.10
9668;DHT22;4872;48.316;10.650;2024-01-30T20:53:38;5.30;87.30
9668;DHT22;4872;48.316;10.650;2024-01-30T20:56:09;5.30;87.40
9668;DHT22;4872;48.316;10.650;2024-01-30T20:58:36;5.30;87.40